sensor_id;sensor_type;location;lat;lon;timestamp;pressure;altitude;pressure_sealevel;temperature;humidity
23427;BME280;41148;45.420;10.952;2022-08-19T00:02:23;100060.22;;;21.85;92.29
23427;BME280;41148;45.420;10.952;2022-08-19T00:04:51;100062.53;;;21.90;92.56
23427;BME280;41148;45.420;10.952;2022-08-19T00:07:19;100064.91;;;21.83;94.41
23427;BME280;41148;45.420;10.952;2022-08-19T00:09:47;100061.00;;;21.76;95.38
23427;BME280;41148;45.420;10.952;2022-08-19T00:12:15;100048.22;;;21.67;96.33
23427;BME280;41148;45.420;10.952;2022-08-19T00:15:10;100007.75;;;21.75;95.95
23427;BME280;41148;45.420;10.952;2022-08-19T00:17:38;99961.47;;;21.88;94.71
23427;BME280;41148;45.420;10.952;2022-08-19T00:20:08;99925.69;;;21.94;93.95
23427;BME280;41148;45.420;10.952;2022-08-19T00:22:38;99878.63;;;22.05;92.49
23427;BME280;41148;45.420;10.952;2022-08-19T00:25:05;99870.59;;;21.93;92.40
23427;BME280;41148;45.420;10.952;2022-08-19T00:27:33;99893.06;;;22.05;91.91
23427;BME280;41148;45.420;10.952;2022-08-19T00:30:00;99909.34;;;22.05;91.34
23427;BME280;41148;45.420;10.952;2022-08-19T00:32:30;99877.94;;;22.03;91.41
23427;BME280;41148;45.420;10.952;2022-08-19T00:34:58;99872.03;;;21.97;88.67
23427;BME280;41148;45.420;10.952;2022-08-19T00:37:26;99916.22;;;21.88;89.58
23427;BME280;41148;45.420;10.952;2022-08-19T00:39:54;99998.84;;;21.84;90.42
23427;BME280;41148;45.420;10.952;2022-08-19T00:42:23;100030.25;;;21.87;90.81
23427;BME280;41148;45.420;10.952;2022-08-19T00:44:50;100022.13;;;21.87;91.21
23427;BME280;41148;45.420;10.952;2022-08-19T00:47:18;100003.66;;;21.81;92.26
23427;BME280;41148;45.420;10.952;2022-08-19T00:49:47;100005.13;;;21.64;94.44
23427;BME280;41148;45.420;10.952;2022-08-19T00:52:29;100030.50;;;21.52;96.38
23427;BME280;41148;45.420;10.952;2022-08-19T00:55:02;100037.91;;;21.50;95.53
23427;BME280;41148;45.420;10.952;2022-08-19T00:58:35;100036.69;;;21.54;95.12
23427;BME280;41148;45.420;10.952;2022-08-19T01:01:03;100035.06;;;21.51;92.08
23427;BME280;41148;45.420;10.952;2022-08-19T01:03:36;100052.81;;;21.55;90.75
23427;BME280;41148;45.420;10.952;2022-08-19T01:06:25;100082.66;;;21.44;93.97
23427;BME280;41148;45.420;10.952;2022-08-19T01:08:53;100087.34;;;21.42;95.85
23427;BME280;41148;45.420;10.952;2022-08-19T01:11:21;100088.19;;;21.54;94.84
23427;BME280;41148;45.420;10.952;2022-08-19T01:13:48;100094.47;;;21.54;93.43
23427;BME280;41148;45.420;10.952;2022-08-19T01:16:17;100093.59;;;21.54;92.36
23427;BME280;41148;45.420;10.952;2022-08-19T01:18:46;100074.53;;;21.44;94.36
23427;BME280;41148;45.420;10.952;2022-08-19T01:23:59;100072.34;;;20.93;97.86
23427;BME280;41148;45.420;10.952;2022-08-19T01:26:27;100075.44;;;20.89;99.09
23427;BME280;41148;45.420;10.952;2022-08-19T01:28:58;100092.66;;;20.99;97.98
23427;BME280;41148;45.420;10.952;2022-08-19T01:31:28;100111.38;;;21.02;99.40
23427;BME280;41148;45.420;10.952;2022-08-19T01:34:00;100115.56;;;21.17;99.16
23427;BME280;41148;45.420;10.952;2022-08-19T01:36:32;100102.38;;;21.01;99.35
23427;BME280;41148;45.420;10.952;2022-08-19T01:39:00;100078.25;;;21.09;98.55
23427;BME280;41148;45.420;10.952;2022-08-19T01:41:28;100082.53;;;21.12;99.16
23427;BME280;41148;45.420;10.952;2022-08-19T01:44:11;100090.44;;;21.15;99.63
23427;BME280;41148;45.420;10.952;2022-08-19T01:46:54;100100.41;;;21.14;100.00
23427;BME280;41148;45.420;10.952;2022-08-19T01:49:23;100112.25;;;21.13;100.00
23427;BME280;41148;45.420;10.952;2022-08-19T01:52:12;100113.34;;;21.11;100.00
23427;BME280;41148;45.420;10.952;2022-08-19T01:54:40;100098.19;;;21.20;99.13
23427;BME280;41148;45.420;10.952;2022-08-19T01:57:11;100087.63;;;21.28;99.14
23427;BME280;41148;45.420;10.952;2022-08-19T01:59:40;100077.38;;;21.31;98.87
23427;BME280;41148;45.420;10.952;2022-08-19T02:02:08;100061.97;;;21.21;99.78
23427;BME280;41148;45.420;10.952;2022-08-19T02:04:36;100052.00;;;21.21;97.59
23427;BME280;41148;45.420;10.952;2022-08-19T02:07:07;100047.84;;;21.17;97.25
23427;BME280;41148;45.420;10.952;2022-08-19T02:09:35;100040.84;;;21.14;96.97
23427;BME280;41148;45.420;10.952;2022-08-19T02:12:03;100044.91;;;20.98;96.17
23427;BME280;41148;45.420;10.952;2022-08-19T02:14:30;100035.94;;;20.86;99.26
23427;BME280;41148;45.420;10.952;2022-08-19T02:16:57;100027.44;;;20.91;99.47
23427;BME280;41148;45.420;10.952;2022-08-19T02:19:25;100028.41;;;21.01;98.98
23427;BME280;41148;45.420;10.952;2022-08-19T02:21:52;100030.00;;;21.03;98.76
23427;BME280;41148;45.420;10.952;2022-08-19T02:24:19;100002.69;;;21.06;98.57
23427;BME280;41148;45.420;10.952;2022-08-19T02:26:46;100004.63;;;21.15;97.53
23427;BME280;41148;45.420;10.952;2022-08-19T02:29:14;100006.34;;;21.17;97.14
23427;BME280;41148;45.420;10.952;2022-08-19T02:31:41;99991.44;;;21.11;97.82
23427;BME280;41148;45.420;10.952;2022-08-19T02:34:08;99981.84;;;21.18;96.69
23427;BME280;41148;45.420;10.952;2022-08-19T02:36:35;99972.25;;;21.14;96.50
23427;BME280;41148;45.420;10.952;2022-08-19T02:39:09;99974.84;;;21.15;96.28
23427;BME280;41148;45.420;10.952;2022-08-19T02:41:36;100014.00;;;21.00;98.05
23427;BME280;41148;45.420;10.952;2022-08-19T02:44:04;100038.78;;;20.84;99.89
23427;BME280;41148;45.420;10.952;2022-08-19T02:46:51;100027.06;;;20.95;99.63
23427;BME280;41148;45.420;10.952;2022-08-19T02:49:18;100035.66;;;21.00;97.96
23427;BME280;41148;45.420;10.952;2022-08-19T02:51:47;100039.38;;;20.88;100.00
23427;BME280;41148;45.420;10.952;2022-08-19T02:54:14;100016.59;;;20.91;99.31
23427;BME280;41148;45.420;10.952;2022-08-19T02:56:42;100010.47;;;20.89;98.97
23427;BME280;41148;45.420;10.952;2022-08-19T02:59:10;100021.19;;;20.68;100.00
23427;BME280;41148;45.420;10.952;2022-08-19T03:01:40;100014.50;;;20.38;100.00
23427;BME280;41148;45.420;10.952;2022-08-19T03:04:08;100016.72;;;20.44;100.00
23427;BME280;41148;45.420;10.952;2022-08-19T03:06:39;100017.13;;;20.51;100.00
23427;BME280;41148;45.420;10.952;2022-08-19T03:09:07;100016.50;;;20.47;100.00
23427;BME280;41148;45.420;10.952;2022-08-19T03:11:34;100021.53;;;20.52;100.00
23427;BME280;41148;45.420;10.952;2022-08-19T03:14:02;100034.47;;;20.60;100.00
23427;BME280;41148;45.420;10.952;2022-08-19T03:16:31;100042.44;;;20.50;100.00
23427;BME280;41148;45.420;10.952;2022-08-19T03:19:00;100045.72;;;20.42;100.00
23427;BME280;41148;45.420;10.952;2022-08-19T03:21:32;100048.34;;;20.55;100.00
23427;BME280;41148;45.420;10.952;2022-08-19T03:24:01;100048.72;;;20.50;100.00
23427;BME280;41148;45.420;10.952;2022-08-19T03:26:29;100059.63;;;20.38;100.00
23427;BME280;41148;45.420;10.952;2022-08-19T03:28:56;100066.50;;;20.42;100.00
23427;BME280;41148;45.420;10.952;2022-08-19T03:31:25;100064.84;;;20.52;100.00
23427;BME280;41148;45.420;10.952;2022-08-19T03:34:13;100069.25;;;20.53;100.00
23427;BME280;41148;45.420;10.952;2022-08-19T03:36:40;100060.66;;;20.59;100.00
23427;BME280;41148;45.420;10.952;2022-08-19T03:39:09;100060.53;;;20.61;100.00
23427;BME280;41148;45.420;10.952;2022-08-19T03:41:37;100066.34;;;20.67;98.99
23427;BME280;41148;45.420;10.952;2022-08-19T03:44:16;100065.81;;;20.73;97.84
23427;BME280;41148;45.420;10.952;2022-08-19T03:46:46;100069.16;;;20.88;96.54
23427;BME280;41148;45.420;10.952;2022-08-19T03:49:14;100065.97;;;20.94;95.11
23427;BME280;41148;45.420;10.952;2022-08-19T03:51:44;100074.31;;;20.91;94.17
23427;BME280;41148;45.420;10.952;2022-08-19T03:54:13;100077.75;;;20.93;93.94
23427;BME280;41148;45.420;10.952;2022-08-19T03:56:41;100094.13;;;20.92;93.60
23427;BME280;41148;45.420;10.952;2022-08-19T03:59:11;100104.47;;;20.98;94.05
23427;BME280;41148;45.420;10.952;2022-08-19T04:01:40;100113.34;;;21.00;93.52
23427;BME280;41148;45.420;10.952;2022-08-19T04:04:08;100125.28;;;20.97;92.33
23427;BME280;41148;45.420;10.952;2022-08-19T04:06:36;100125.91;;;20.90;94.19
23427;BME280;41148;45.420;10.952;2022-08-19T04:09:07;100128.72;;;20.77;95.19
23427;BME280;41148;45.420;10.952;2022-08-19T04:11:36;100135.47;;;20.82;95.14
23427;BME280;41148;45.420;10.952;2022-08-19T04:14:12;100148.00;;;20.61;97.00
23427;BME280;41148;45.420;10.952;2022-08-19T04:16:40;100161.50;;;20.50;97.71
23427;BME280;41148;45.420;10.952;2022-08-19T04:19:07;100170.38;;;20.52;98.09
23427;BME280;41148;45.420;10.952;2022-08-19T04:21:34;100178.03;;;20.58;98.61
23427;BME280;41148;45.420;10.952;2022-08-19T04:24:02;100191.69;;;20.56;99.98
23427;BME280;41148;45.420;10.952;2022-08-19T04:26:31;100202.59;;;20.55;100.00
23427;BME280;41148;45.420;10.952;2022-08-19T04:29:00;100223.00;;;20.48;100.00
23427;BME280;41148;45.420;10.952;2022-08-19T04:31:28;100224.03;;;20.58;100.00
23427;BME280;41148;45.420;10.952;2022-08-19T04:33:56;100230.19;;;20.60;100.00
23427;BME280;41148;45.420;10.952;2022-08-19T04:36:26;100220.59;;;20.56;100.00
23427;BME280;41148;45.420;10.952;2022-08-19T04:38:57;100228.69;;;20.56;99.73
23427;BME280;41148;45.420;10.952;2022-08-19T04:41:25;100224.00;;;20.47;99.97
23427;BME280;41148;45.420;10.952;2022-08-19T04:44:11;100221.28;;;20.47;100.00
23427;BME280;41148;45.420;10.952;2022-08-19T04:46:39;100226.13;;;20.42;99.59
23427;BME280;41148;45.420;10.952;2022-08-19T04:49:18;100217.72;;;20.34;100.00
23427;BME280;41148;45.420;10.952;2022-08-19T04:51:46;100207.91;;;20.33;100.00
23427;BME280;41148;45.420;10.952;2022-08-19T04:54:15;100196.28;;;20.43;100.00
23427;BME280;41148;45.420;10.952;2022-08-19T04:57:02;100190.97;;;20.42;100.00
23427;BME280;41148;45.420;10.952;2022-08-19T04:59:33;100173.13;;;20.39;100.00
23427;BME280;41148;45.420;10.952;2022-08-19T05:02:01;100166.88;;;20.39;100.00
23427;BME280;41148;45.420;10.952;2022-08-19T05:04:28;100161.03;;;20.56;100.00
23427;BME280;41148;45.420;10.952;2022-08-19T05:06:57;100164.84;;;20.65;100.00
23427;BME280;41148;45.420;10.952;2022-08-19T05:09:27;100167.69;;;20.74;100.00
23427;BME280;41148;45.420;10.952;2022-08-19T05:12:15;100163.31;;;20.96;100.00
23427;BME280;41148;45.420;10.952;2022-08-19T05:14:43;100150.25;;;21.01;99.06
23427;BME280;41148;45.420;10.952;2022-08-19T05:17:13;100139.94;;;21.06;98.92
23427;BME280;41148;45.420;10.952;2022-08-19T05:20:01;100135.84;;;21.11;97.92
23427;BME280;41148;45.420;10.952;2022-08-19T05:22:47;100122.56;;;21.08;98.51
23427;BME280;41148;45.420;10.952;2022-08-19T05:25:18;100120.34;;;21.02;98.60
23427;BME280;41148;45.420;10.952;2022-08-19T05:27:47;100118.63;;;21.01;98.26
23427;BME280;41148;45.420;10.952;2022-08-19T05:30:14;100122.97;;;21.04;98.05
23427;BME280;41148;45.420;10.952;2022-08-19T05:32:42;100124.16;;;21.00;99.15
23427;BME280;41148;45.420;10.952;2022-08-19T05:35:09;100139.69;;;20.75;100.00
23427;BME280;41148;45.420;10.952;2022-08-19T05:37:37;100145.03;;;20.64;100.00
23427;BME280;41148;45.420;10.952;2022-08-19T05:40:08;100148.84;;;20.50;100.00
23427;BME280;41148;45.420;10.952;2022-08-19T05:42:35;100152.28;;;20.52;100.00
23427;BME280;41148;45.420;10.952;2022-08-19T05:45:03;100155.50;;;20.57;100.00
23427;BME280;41148;45.420;10.952;2022-08-19T05:47:31;100151.59;;;20.73;99.79
23427;BME280;41148;45.420;10.952;2022-08-19T05:49:59;100154.44;;;20.82;98.22
23427;BME280;41148;45.420;10.952;2022-08-19T05:52:31;100154.22;;;20.85;98.06
23427;BME280;41148;45.420;10.952;2022-08-19T05:54:59;100149.53;;;20.88;98.11
23427;BME280;41148;45.420;10.952;2022-08-19T05:57:26;100148.16;;;20.93;97.94
23427;BME280;41148;45.420;10.952;2022-08-19T05:59:56;100131.91;;;20.93;98.24
23427;BME280;41148;45.420;10.952;2022-08-19T06:02:28;100132.03;;;20.80;99.31
23427;BME280;41148;45.420;10.952;2022-08-19T06:04:59;100125.16;;;20.76;99.59
23427;BME280;41148;45.420;10.952;2022-08-19T06:07:27;100132.03;;;20.80;98.85
23427;BME280;41148;45.420;10.952;2022-08-19T06:09:56;100127.59;;;20.79;99.09
23427;BME280;41148;45.420;10.952;2022-08-19T06:12:31;100123.03;;;20.69;99.70
23427;BME280;41148;45.420;10.952;2022-08-19T06:15:07;100110.38;;;20.58;100.00
23427;BME280;41148;45.420;10.952;2022-08-19T06:17:36;100101.75;;;20.64;100.00
23427;BME280;41148;45.420;10.952;2022-08-19T06:20:12;100095.47;;;20.52;100.00
23427;BME280;41148;45.420;10.952;2022-08-19T06:22:41;100088.19;;;20.53;100.00
23427;BME280;41148;45.420;10.952;2022-08-19T06:25:09;100075.78;;;20.50;100.00
23427;BME280;41148;45.420;10.952;2022-08-19T06:27:37;100061.88;;;20.55;100.00
23427;BME280;41148;45.420;10.952;2022-08-19T06:30:28;100074.66;;;20.53;100.00
23427;BME280;41148;45.420;10.952;2022-08-19T06:33:29;100089.06;;;20.53;100.00
23427;BME280;41148;45.420;10.952;2022-08-19T06:35:57;100092.53;;;20.67;100.00
23427;BME280;41148;45.420;10.952;2022-08-19T06:38:24;100096.31;;;20.53;100.00
23427;BME280;41148;45.420;10.952;2022-08-19T06:40:59;100111.22;;;20.58;100.00
23427;BME280;41148;45.420;10.952;2022-08-19T06:43:27;100122.91;;;20.59;100.00
23427;BME280;41148;45.420;10.952;2022-08-19T06:45:55;100136.31;;;20.61;100.00
23427;BME280;41148;45.420;10.952;2022-08-19T06:48:22;100137.78;;;20.53;100.00
23427;BME280;41148;45.420;10.952;2022-08-19T06:50:52;100137.41;;;20.47;100.00
23427;BME280;41148;45.420;10.952;2022-08-19T06:53:21;100130.72;;;20.40;100.00
23427;BME280;41148;45.420;10.952;2022-08-19T06:56:16;100138.31;;;20.35;100.00
23427;BME280;41148;45.420;10.952;2022-08-19T06:58:44;100153.34;;;20.39;100.00
23427;BME280;41148;45.420;10.952;2022-08-19T07:01:11;100158.00;;;20.37;100.00
23427;BME280;41148;45.420;10.952;2022-08-19T07:03:39;100166.34;;;20.34;100.00
23427;BME280;41148;45.420;10.952;2022-08-19T07:06:07;100157.72;;;20.28;100.00
23427;BME280;41148;45.420;10.952;2022-08-19T07:08:47;100161.75;;;20.23;100.00
23427;BME280;41148;45.420;10.952;2022-08-19T07:11:15;100167.41;;;20.20;100.00
23427;BME280;41148;45.420;10.952;2022-08-19T07:13:44;100176.72;;;20.16;100.00
23427;BME280;41148;45.420;10.952;2022-08-19T07:16:17;100182.03;;;20.17;100.00
23427;BME280;41148;45.420;10.952;2022-08-19T07:18:55;100178.56;;;20.15;100.00
23427;BME280;41148;45.420;10.952;2022-08-19T07:21:25;100187.44;;;20.17;100.00
23427;BME280;41148;45.420;10.952;2022-08-19T07:23:56;100177.06;;;20.11;100.00
23427;BME280;41148;45.420;10.952;2022-08-19T07:26:27;100184.22;;;20.12;100.00
23427;BME280;41148;45.420;10.952;2022-08-19T07:28:55;100178.06;;;20.10;100.00
23427;BME280;41148;45.420;10.952;2022-08-19T07:31:25;100190.59;;;20.11;100.00
23427;BME280;41148;45.420;10.952;2022-08-19T07:33:57;100194.78;;;20.15;100.00
23427;BME280;41148;45.420;10.952;2022-08-19T07:36:25;100195.19;;;20.22;100.00
23427;BME280;41148;45.420;10.952;2022-08-19T07:38:58;100198.81;;;20.34;100.00
23427;BME280;41148;45.420;10.952;2022-08-19T07:41:26;100208.75;;;20.33;100.00
23427;BME280;41148;45.420;10.952;2022-08-19T07:43:55;100197.47;;;20.39;100.00
23427;BME280;41148;45.420;10.952;2022-08-19T07:46:22;100190.22;;;20.40;100.00
23427;BME280;41148;45.420;10.952;2022-08-19T07:48:50;100197.34;;;20.41;100.00
23427;BME280;41148;45.420;10.952;2022-08-19T07:51:19;100209.47;;;20.48;100.00
23427;BME280;41148;45.420;10.952;2022-08-19T07:54:03;100203.22;;;20.47;100.00
23427;BME280;41148;45.420;10.952;2022-08-19T07:56:30;100201.16;;;20.38;100.00
23427;BME280;41148;45.420;10.952;2022-08-19T07:58:58;100208.34;;;20.26;100.00
23427;BME280;41148;45.420;10.952;2022-08-19T08:01:26;100207.50;;;20.26;100.00
23427;BME280;41148;45.420;10.952;2022-08-19T08:03:56;100200.59;;;20.22;100.00
23427;BME280;41148;45.420;10.952;2022-08-19T08:06:46;100203.72;;;20.05;100.00
23427;BME280;41148;45.420;10.952;2022-08-19T08:09:34;100200.09;;;19.93;100.00
23427;BME280;41148;45.420;10.952;2022-08-19T08:12:19;100196.56;;;19.80;100.00
23427;BME280;41148;45.420;10.952;2022-08-19T08:15:03;100197.81;;;19.87;100.00
23427;BME280;41148;45.420;10.952;2022-08-19T08:17:38;100191.25;;;19.78;100.00
23427;BME280;41148;45.420;10.952;2022-08-19T08:20:50;100180.63;;;19.88;100.00
23427;BME280;41148;45.420;10.952;2022-08-19T08:23:18;100185.53;;;19.83;100.00
23427;BME280;41148;45.420;10.952;2022-08-19T08:26:03;100179.56;;;19.90;100.00
23427;BME280;41148;45.420;10.952;2022-08-19T08:28:41;100167.09;;;19.88;100.00
23427;BME280;41148;45.420;10.952;2022-08-19T08:31:17;100171.31;;;19.92;100.00
23427;BME280;41148;45.420;10.952;2022-08-19T08:33:54;100176.00;;;19.90;100.00
23427;BME280;41148;45.420;10.952;2022-08-19T08:36:22;100184.72;;;19.93;100.00
23427;BME280;41148;45.420;10.952;2022-08-19T08:38:51;100199.47;;;19.89;100.00
23427;BME280;41148;45.420;10.952;2022-08-19T08:43:58;100216.81;;;19.74;100.00
23427;BME280;41148;45.420;10.952;2022-08-19T08:49:36;100217.44;;;19.78;100.00
23427;BME280;41148;45.420;10.952;2022-08-19T08:52:11;100242.63;;;19.78;100.00
23427;BME280;41148;45.420;10.952;2022-08-19T08:54:42;100249.53;;;19.82;100.00
23427;BME280;41148;45.420;10.952;2022-08-19T09:00:08;100283.06;;;19.80;100.00
23427;BME280;41148;45.420;10.952;2022-08-19T09:02:44;100279.16;;;19.84;100.00
23427;BME280;41148;45.420;10.952;2022-08-19T09:05:17;100272.63;;;19.62;100.00
23427;BME280;41148;45.420;10.952;2022-08-19T09:10:23;100279.84;;;19.62;100.00
23427;BME280;41148;45.420;10.952;2022-08-19T09:15:45;100278.72;;;19.77;100.00
23427;BME280;41148;45.420;10.952;2022-08-19T09:18:14;100274.97;;;19.80;100.00
23427;BME280;41148;45.420;10.952;2022-08-19T09:20:45;100263.19;;;19.81;100.00
23427;BME280;41148;45.420;10.952;2022-08-19T09:23:14;100260.72;;;19.65;100.00
23427;BME280;41148;45.420;10.952;2022-08-19T09:25:42;100256.91;;;19.55;100.00
23427;BME280;41148;45.420;10.952;2022-08-19T09:28:09;100245.03;;;19.44;100.00
23427;BME280;41148;45.420;10.952;2022-08-19T09:30:48;100243.75;;;19.37;100.00
23427;BME280;41148;45.420;10.952;2022-08-19T09:33:18;100229.59;;;19.34;100.00
23427;BME280;41148;45.420;10.952;2022-08-19T09:35:46;100223.53;;;19.43;100.00
23427;BME280;41148;45.420;10.952;2022-08-19T09:38:20;100216.63;;;19.52;100.00
23427;BME280;41148;45.420;10.952;2022-08-19T09:40:48;100206.78;;;19.51;100.00
23427;BME280;41148;45.420;10.952;2022-08-19T09:43:17;100210.13;;;19.54;100.00
23427;BME280;41148;45.420;10.952;2022-08-19T09:46:00;100200.94;;;19.57;100.00
23427;BME280;41148;45.420;10.952;2022-08-19T09:48:27;100191.78;;;19.59;100.00
23427;BME280;41148;45.420;10.952;2022-08-19T09:50:54;100191.78;;;19.59;100.00
23427;BME280;41148;45.420;10.952;2022-08-19T09:53:22;100182.09;;;19.68;100.00
23427;BME280;41148;45.420;10.952;2022-08-19T09:55:52;100175.16;;;19.77;100.00
23427;BME280;41148;45.420;10.952;2022-08-19T09:58:21;100177.34;;;19.71;100.00
23427;BME280;41148;45.420;10.952;2022-08-19T10:01:01;100168.91;;;19.76;100.00
23427;BME280;41148;45.420;10.952;2022-08-19T10:03:34;100158.81;;;19.78;100.00
23427;BME280;41148;45.420;10.952;2022-08-19T10:10:06;100144.75;;;19.86;100.00
23427;BME280;41148;45.420;10.952;2022-08-19T10:13:02;100141.84;;;19.89;100.00
23427;BME280;41148;45.420;10.952;2022-08-19T10:15:36;100138.75;;;19.93;100.00
23427;BME280;41148;45.420;10.952;2022-08-19T10:18:22;100147.16;;;20.01;100.00
23427;BME280;41148;45.420;10.952;2022-08-19T10:23:54;100144.50;;;20.13;100.00
23427;BME280;41148;45.420;10.952;2022-08-19T10:27:32;100151.22;;;20.07;100.00
23427;BME280;41148;45.420;10.952;2022-08-19T10:30:29;100150.44;;;20.18;100.00
23427;BME280;41148;45.420;10.952;2022-08-19T10:33:24;100158.19;;;20.22;100.00
23427;BME280;41148;45.420;10.952;2022-08-19T10:36:20;100156.22;;;20.24;100.00
23427;BME280;41148;45.420;10.952;2022-08-19T10:38:50;100166.75;;;20.40;100.00
23427;BME280;41148;45.420;10.952;2022-08-19T10:41:31;100153.56;;;20.36;100.00
23427;BME280;41148;45.420;10.952;2022-08-19T10:44:03;100154.19;;;20.39;100.00
23427;BME280;41148;45.420;10.952;2022-08-19T10:46:33;100152.59;;;20.37;100.00
23427;BME280;41148;45.420;10.952;2022-08-19T10:49:02;100144.41;;;20.49;100.00
23427;BME280;41148;45.420;10.952;2022-08-19T10:51:30;100140.41;;;20.42;100.00
23427;BME280;41148;45.420;10.952;2022-08-19T10:54:16;100133.47;;;20.51;100.00
23427;BME280;41148;45.420;10.952;2022-08-19T10:56:57;100135.94;;;20.65;100.00
23427;BME280;41148;45.420;10.952;2022-08-19T10:59:26;100129.94;;;20.73;100.00
23427;BME280;41148;45.420;10.952;2022-08-19T11:02:00;100128.84;;;20.75;100.00
23427;BME280;41148;45.420;10.952;2022-08-19T11:04:28;100127.72;;;20.78;100.00
23427;BME280;41148;45.420;10.952;2022-08-19T11:06:56;100129.34;;;20.80;100.00
23427;BME280;41148;45.420;10.952;2022-08-19T11:09:24;100128.97;;;20.85;100.00
23427;BME280;41148;45.420;10.952;2022-08-19T11:12:00;100132.16;;;20.90;100.00
23427;BME280;41148;45.420;10.952;2022-08-19T11:14:29;100141.53;;;20.97;100.00
23427;BME280;41148;45.420;10.952;2022-08-19T11:17:00;100145.22;;;21.07;100.00
23427;BME280;41148;45.420;10.952;2022-08-19T11:19:28;100155.78;;;21.22;100.00
23427;BME280;41148;45.420;10.952;2022-08-19T11:21:56;100155.19;;;21.18;100.00
23427;BME280;41148;45.420;10.952;2022-08-19T11:24:26;100153.88;;;21.35;100.00
23427;BME280;41148;45.420;10.952;2022-08-19T11:26:55;100154.34;;;21.40;100.00
23427;BME280;41148;45.420;10.952;2022-08-19T11:29:28;100155.28;;;21.61;100.00
23427;BME280;41148;45.420;10.952;2022-08-19T11:31:56;100150.97;;;21.81;100.00
23427;BME280;41148;45.420;10.952;2022-08-19T11:34:25;100162.94;;;21.99;100.00
23427;BME280;41148;45.420;10.952;2022-08-19T11:36:55;100166.81;;;22.29;96.85
23427;BME280;41148;45.420;10.952;2022-08-19T11:39:26;100159.34;;;22.21;97.24
23427;BME280;41148;45.420;10.952;2022-08-19T11:41:54;100160.50;;;22.08;97.34
23427;BME280;41148;45.420;10.952;2022-08-19T11:44:21;100162.13;;;22.10;97.40
23427;BME280;41148;45.420;10.952;2022-08-19T11:46:49;100161.22;;;22.10;97.12
23427;BME280;41148;45.420;10.952;2022-08-19T11:49:17;100165.28;;;22.15;94.93
23427;BME280;41148;45.420;10.952;2022-08-19T11:51:46;100165.88;;;22.19;97.52
23427;BME280;41148;45.420;10.952;2022-08-19T11:54:14;100172.06;;;22.10;97.64
23427;BME280;41148;45.420;10.952;2022-08-19T11:56:41;100162.72;;;22.03;98.38
23427;BME280;41148;45.420;10.952;2022-08-19T11:59:09;100172.94;;;21.99;96.39
23427;BME280;41148;45.420;10.952;2022-08-19T12:01:41;100167.03;;;22.05;99.09
23427;BME280;41148;45.420;10.952;2022-08-19T12:04:09;100164.78;;;22.21;98.59
23427;BME280;41148;45.420;10.952;2022-08-19T12:06:38;100155.00;;;22.30;96.98
23427;BME280;41148;45.420;10.952;2022-08-19T12:09:07;100157.72;;;22.30;95.73
23427;BME280;41148;45.420;10.952;2022-08-19T12:11:36;100160.53;;;22.28;95.86
23427;BME280;41148;45.420;10.952;2022-08-19T12:14:04;100162.22;;;22.41;94.30
23427;BME280;41148;45.420;10.952;2022-08-19T12:16:32;100164.84;;;22.31;92.70
23427;BME280;41148;45.420;10.952;2022-08-19T12:18:59;100160.53;;;22.28;92.98
23427;BME280;41148;45.420;10.952;2022-08-19T12:21:31;100151.88;;;22.35;93.01
23427;BME280;41148;45.420;10.952;2022-08-19T12:24:00;100151.69;;;22.47;93.74
23427;BME280;41148;45.420;10.952;2022-08-19T12:26:28;100149.31;;;22.54;90.50
23427;BME280;41148;45.420;10.952;2022-08-19T12:28:55;100148.91;;;22.59;88.20
23427;BME280;41148;45.420;10.952;2022-08-19T12:31:23;100146.59;;;22.54;88.85
23427;BME280;41148;45.420;10.952;2022-08-19T12:33:50;100146.16;;;22.49;88.13
23427;BME280;41148;45.420;10.952;2022-08-19T12:36:19;100145.31;;;22.58;88.23
23427;BME280;41148;45.420;10.952;2022-08-19T12:39:04;100148.03;;;22.58;86.76
23427;BME280;41148;45.420;10.952;2022-08-19T12:41:36;100146.44;;;22.55;86.67
23427;BME280;41148;45.420;10.952;2022-08-19T12:44:21;100148.78;;;22.60;85.70
23427;BME280;41148;45.420;10.952;2022-08-19T12:46:58;100142.44;;;22.50;85.61
23427;BME280;41148;45.420;10.952;2022-08-19T12:49:30;100145.22;;;22.60;85.46
23427;BME280;41148;45.420;10.952;2022-08-19T12:52:18;100146.72;;;22.52;85.13
23427;BME280;41148;45.420;10.952;2022-08-19T12:54:49;100143.28;;;22.50;85.37
23427;BME280;41148;45.420;10.952;2022-08-19T12:57:24;100152.16;;;22.52;86.60
23427;BME280;41148;45.420;10.952;2022-08-19T13:00:00;100147.31;;;22.56;87.30
23427;BME280;41148;45.420;10.952;2022-08-19T13:02:31;100154.00;;;22.52;86.91
23427;BME280;41148;45.420;10.952;2022-08-19T13:05:05;100149.03;;;22.57;86.45
23427;BME280;41148;45.420;10.952;2022-08-19T13:07:38;100139.22;;;22.66;85.91
23427;BME280;41148;45.420;10.952;2022-08-19T13:10:08;100138.78;;;22.61;86.78
23427;BME280;41148;45.420;10.952;2022-08-19T13:12:37;100141.81;;;22.67;86.32
23427;BME280;41148;45.420;10.952;2022-08-19T13:15:05;100139.28;;;22.75;86.21
23427;BME280;41148;45.420;10.952;2022-08-19T13:17:37;100140.09;;;22.66;85.21
23427;BME280;41148;45.420;10.952;2022-08-19T13:20:06;100137.44;;;22.76;85.84
23427;BME280;41148;45.420;10.952;2022-08-19T13:22:35;100127.97;;;22.70;84.69
23427;BME280;41148;45.420;10.952;2022-08-19T13:25:03;100133.84;;;22.75;85.17